sensor_id;sensor_type;location;lat;lon;timestamp;pressure;altitude;pressure_sealevel;temperature;humidity
20909;BME280;10614;53.198;6.570;2023-04-15T00:01:20;101106.47;;;9.05;88.61
20909;BME280;10614;53.198;6.570;2023-04-15T00:03:23;101102.28;;;9.00;88.96
20909;BME280;10614;53.198;6.570;2023-04-15T00:05:24;101113.63;;;9.00;89.42
20909;BME280;10614;53.198;6.570;2023-04-15T00:07:26;101107.53;;;9.00;89.31
20909;BME280;10614;53.198;6.570;2023-04-15T00:09:30;101112.78;;;9.00;88.56
20909;BME280;10614;53.198;6.570;2023-04-15T00:11:31;101111.97;;;8.98;89.61
20909;BME280;10614;53.198;6.570;2023-04-15T00:13:33;101106.84;;;8.93;90.15
20909;BME280;10614;53.198;6.570;2023-04-15T00:15:35;101113.06;;;8.91;90.35
20909;BME280;10614;53.198;6.570;2023-04-15T00:17:36;101110.53;;;8.87;90.16
20909;BME280;10614;53.198;6.570;2023-04-15T00:19:39;101109.69;;;8.85;90.05
20909;BME280;10614;53.198;6.570;2023-04-15T00:21:41;101107.97;;;8.84;90.62
20909;BME280;10614;53.198;6.570;2023-04-15T00:23:42;101117.63;;;8.82;91.12
20909;BME280;10614;53.198;6.570;2023-04-15T00:25:45;101122.97;;;8.81;91.19
20909;BME280;10614;53.198;6.570;2023-04-15T00:27:47;101116.91;;;8.77;91.65
20909;BME280;10614;53.198;6.570;2023-04-15T00:29:49;101110.91;;;8.74;92.14
20909;BME280;10614;53.198;6.570;2023-04-15T00:31:50;101116.22;;;8.71;91.57
20909;BME280;10614;53.198;6.570;2023-04-15T00:33:53;101111.03;;;8.69;92.01
20909;BME280;10614;53.198;6.570;2023-04-15T00:35:55;101115.47;;;8.67;92.29
20909;BME280;10614;53.198;6.570;2023-04-15T00:37:56;101104.16;;;8.65;92.00
20909;BME280;10614;53.198;6.570;2023-04-15T00:39:58;101110.31;;;8.64;91.92
20909;BME280;10614;53.198;6.570;2023-04-15T00:42:02;101113.84;;;8.61;92.19
20909;BME280;10614;53.198;6.570;2023-04-15T00:44:04;101119.09;;;8.61;92.44
20909;BME280;10614;53.198;6.570;2023-04-15T00:46:06;101119.19;;;8.58;92.91
20909;BME280;10614;53.198;6.570;2023-04-15T00:48:08;101131.56;;;8.55;92.88
20909;BME280;10614;53.198;6.570;2023-04-15T00:50:11;101136.81;;;8.53;93.27
20909;BME280;10614;53.198;6.570;2023-04-15T00:52:12;101121.19;;;8.50;93.55
20909;BME280;10614;53.198;6.570;2023-04-15T00:54:14;101131.69;;;8.49;93.62
20909;BME280;10614;53.198;6.570;2023-04-15T00:56:16;101130.84;;;8.48;93.66
20909;BME280;10614;53.198;6.570;2023-04-15T00:58:19;101130.84;;;8.48;94.14
20909;BME280;10614;53.198;6.570;2023-04-15T01:00:21;101132.56;;;8.49;94.51
20909;BME280;10614;53.198;6.570;2023-04-15T01:02:23;101134.34;;;8.47;94.63
20909;BME280;10614;53.198;6.570;2023-04-15T01:04:24;101139.59;;;8.47;94.31
20909;BME280;10614;53.198;6.570;2023-04-15T01:06:26;101124.78;;;8.46;94.73
20909;BME280;10614;53.198;6.570;2023-04-15T01:08:28;101128.34;;;8.43;95.04
20909;BME280;10614;53.198;6.570;2023-04-15T01:10:29;101125.78;;;8.40;95.66
20909;BME280;10614;53.198;6.570;2023-04-15T01:12:31;101131.06;;;8.39;95.67
20909;BME280;10614;53.198;6.570;2023-04-15T01:14:35;101138.09;;;8.37;95.56
20909;BME280;10614;53.198;6.570;2023-04-15T01:16:37;101137.31;;;8.33;95.53
20909;BME280;10614;53.198;6.570;2023-04-15T01:18:40;101132.16;;;8.30;95.86
20909;BME280;10614;53.198;6.570;2023-04-15T01:20:41;101140.03;;;8.29;96.02
20909;BME280;10614;53.198;6.570;2023-04-15T01:22:43;101147.13;;;8.27;96.63
20909;BME280;10614;53.198;6.570;2023-04-15T01:24:47;101144.53;;;8.25;96.49
20909;BME280;10614;53.198;6.570;2023-04-15T01:26:54;101143.69;;;8.23;96.48
20909;BME280;10614;53.198;6.570;2023-04-15T01:28:56;101151.59;;;8.21;97.03
20909;BME280;10614;53.198;6.570;2023-04-15T01:31:05;101142.03;;;8.20;96.68
20909;BME280;10614;53.198;6.570;2023-04-15T01:33:07;101131.56;;;8.19;96.96
20909;BME280;10614;53.198;6.570;2023-04-15T01:35:09;101143.00;;;8.16;97.14
20909;BME280;10614;53.198;6.570;2023-04-15T01:37:10;101134.28;;;8.14;97.18
20909;BME280;10614;53.198;6.570;2023-04-15T01:39:12;101138.78;;;8.11;97.32
20909;BME280;10614;53.198;6.570;2023-04-15T01:41:13;101144.03;;;8.09;97.91
20909;BME280;10614;53.198;6.570;2023-04-15T01:43:16;101139.75;;;8.07;97.95
20909;BME280;10614;53.198;6.570;2023-04-15T01:45:18;101143.31;;;8.04;98.10
20909;BME280;10614;53.198;6.570;2023-04-15T01:47:19;101139.81;;;8.03;98.10
20909;BME280;10614;53.198;6.570;2023-04-15T01:49:21;101143.38;;;8.01;98.04
20909;BME280;10614;53.198;6.570;2023-04-15T01:51:23;101139.03;;;8.00;98.47
20909;BME280;10614;53.198;6.570;2023-04-15T01:53:25;101148.69;;;7.98;98.47
20909;BME280;10614;53.198;6.570;2023-04-15T01:55:26;101145.22;;;7.96;98.96
20909;BME280;10614;53.198;6.570;2023-04-15T01:57:28;101144.44;;;7.94;98.85
20909;BME280;10614;53.198;6.570;2023-04-15T01:59:31;101140.94;;;7.93;99.04
20909;BME280;10614;53.198;6.570;2023-04-15T02:01:32;101145.34;;;7.91;98.93
20909;BME280;10614;53.198;6.570;2023-04-15T02:03:34;101148.03;;;7.88;99.09
20909;BME280;10614;53.198;6.570;2023-04-15T02:05:36;101143.75;;;7.86;99.27
20909;BME280;10614;53.198;6.570;2023-04-15T02:07:37;101141.22;;;7.82;99.74
20909;BME280;10614;53.198;6.570;2023-04-15T02:09:39;101144.69;;;7.83;99.85
20909;BME280;10614;53.198;6.570;2023-04-15T02:11:40;101138.59;;;7.81;99.61
20909;BME280;10614;53.198;6.570;2023-04-15T02:13:42;101138.63;;;7.79;99.76
20909;BME280;10614;53.198;6.570;2023-04-15T02:15:47;101142.19;;;7.77;99.90
20909;BME280;10614;53.198;6.570;2023-04-15T02:17:48;101150.13;;;7.74;100.00
20909;BME280;10614;53.198;6.570;2023-04-15T02:19:51;101147.53;;;7.72;100.00
20909;BME280;10614;53.198;6.570;2023-04-15T02:21:53;101139.75;;;7.71;100.00
20909;BME280;10614;53.198;6.570;2023-04-15T02:23:54;101148.47;;;7.70;100.00
20909;BME280;10614;53.198;6.570;2023-04-15T02:25:56;101151.16;;;7.68;100.00
20909;BME280;10614;53.198;6.570;2023-04-15T02:27:59;101154.66;;;7.67;100.00
20909;BME280;10614;53.198;6.570;2023-04-15T02:30:00;101161.66;;;7.67;100.00
20909;BME280;10614;53.198;6.570;2023-04-15T02:32:03;101164.31;;;7.65;100.00
20909;BME280;10614;53.198;6.570;2023-04-15T02:34:05;101154.75;;;7.63;100.00
20909;BME280;10614;53.198;6.570;2023-04-15T02:36:07;101163.53;;;7.61;100.00
20909;BME280;10614;53.198;6.570;2023-04-15T02:38:10;101168.78;;;7.60;100.00
20909;BME280;10614;53.198;6.570;2023-04-15T02:40:13;101174.06;;;7.58;100.00
20909;BME280;10614;53.198;6.570;2023-04-15T02:42:14;101170.66;;;7.55;100.00
20909;BME280;10614;53.198;6.570;2023-04-15T02:44:16;101174.22;;;7.52;100.00
20909;BME280;10614;53.198;6.570;2023-04-15T02:46:19;101172.53;;;7.50;100.00
20909;BME280;10614;53.198;6.570;2023-04-15T02:48:23;101187.38;;;7.49;100.00
20909;BME280;10614;53.198;6.570;2023-04-15T02:50:25;101181.34;;;7.44;100.00
20909;BME280;10614;53.198;6.570;2023-04-15T02:52:26;101182.25;;;7.43;100.00
20909;BME280;10614;53.198;6.570;2023-04-15T02:54:28;101187.53;;;7.42;100.00
20909;BME280;10614;53.198;6.570;2023-04-15T02:56:30;101190.19;;;7.40;100.00
20909;BME280;10614;53.198;6.570;2023-04-15T02:58:31;101189.38;;;7.38;100.00
20909;BME280;10614;53.198;6.570;2023-04-15T03:00:33;101191.16;;;7.36;100.00
20909;BME280;10614;53.198;6.570;2023-04-15T03:02:35;101192.03;;;7.35;100.00
20909;BME280;10614;53.198;6.570;2023-04-15T03:04:39;101188.59;;;7.33;100.00
20909;BME280;10614;53.198;6.570;2023-04-15T03:06:40;101191.25;;;7.31;100.00
20909;BME280;10614;53.198;6.570;2023-04-15T03:08:42;101199.97;;;7.30;100.00
20909;BME280;10614;53.198;6.570;2023-04-15T03:10:43;101191.31;;;7.28;100.00
20909;BME280;10614;53.198;6.570;2023-04-15T03:12:45;101199.19;;;7.27;100.00
20909;BME280;10614;53.198;6.570;2023-04-15T03:14:46;101198.34;;;7.25;100.00
20909;BME280;10614;53.198;6.570;2023-04-15T03:16:48;101199.28;;;7.24;100.00
20909;BME280;10614;53.198;6.570;2023-04-15T03:18:51;101200.19;;;7.21;100.00
20909;BME280;10614;53.198;6.570;2023-04-15T03:20:54;101201.06;;;7.20;100.00
20909;BME280;10614;53.198;6.570;2023-04-15T03:22:55;101201.97;;;7.19;100.00
20909;BME280;10614;53.198;6.570;2023-04-15T03:24:57;101205.53;;;7.16;100.00
20909;BME280;10614;53.198;6.570;2023-04-15T03:26:58;101201.16;;;7.15;100.00
20909;BME280;10614;53.198;6.570;2023-04-15T03:29:00;101199.44;;;7.14;100.00
20909;BME280;10614;53.198;6.570;2023-04-15T03:31:02;101209.94;;;7.13;100.00
20909;BME280;10614;53.198;6.570;2023-04-15T03:33:04;101203.88;;;7.11;100.00
20909;BME280;10614;53.198;6.570;2023-04-15T03:35:06;101217.88;;;7.10;100.00
20909;BME280;10614;53.198;6.570;2023-04-15T03:37:09;101209.19;;;7.08;100.00
20909;BME280;10614;53.198;6.570;2023-04-15T03:39:10;101205.84;;;7.00;100.00
20909;BME280;10614;53.198;6.570;2023-04-15T03:41:12;101217.06;;;7.06;100.00
20909;BME280;10614;53.198;6.570;2023-04-15T03:43:13;101213.59;;;7.04;100.00
20909;BME280;10614;53.198;6.570;2023-04-15T03:45:15;101217.97;;;7.04;100.00
20909;BME280;10614;53.198;6.570;2023-04-15T03:47:17;101218.03;;;7.01;100.00
20909;BME280;10614;53.198;6.570;2023-04-15T03:49:18;101220.66;;;7.01;100.00
20909;BME280;10614;53.198;6.570;2023-04-15T03:51:22;101221.53;;;7.00;100.00
20909;BME280;10614;53.198;6.570;2023-04-15T03:53:24;101216.34;;;6.98;100.00
20909;BME280;10614;53.198;6.570;2023-04-15T03:55:26;101226.81;;;6.98;100.00
20909;BME280;10614;53.198;6.570;2023-04-15T03:57:27;101221.59;;;6.98;100.00
20909;BME280;10614;53.198;6.570;2023-04-15T03:59:29;101224.22;;;6.96;100.00
20909;BME280;10614;53.198;6.570;2023-04-15T04:01:30;101222.53;;;6.94;100.00
20909;BME280;10614;53.198;6.570;2023-04-15T04:03:32;101219.06;;;6.93;100.00
20909;BME280;10614;53.198;6.570;2023-04-15T04:05:33;101225.16;;;6.92;100.00
20909;BME280;10614;53.198;6.570;2023-04-15T04:07:36;101220.00;;;6.89;100.00
20909;BME280;10614;53.198;6.570;2023-04-15T04:09:39;101227.84;;;6.89;100.00
20909;BME280;10614;53.198;6.570;2023-04-15T04:11:41;101219.16;;;6.87;100.00
20909;BME280;10614;53.198;6.570;2023-04-15T04:13:42;101234.00;;;6.87;100.00
20909;BME280;10614;53.198;6.570;2023-04-15T04:15:44;101228.78;;;6.85;100.00
20909;BME280;10614;53.198;6.570;2023-04-15T04:17:45;101229.69;;;6.84;100.00
20909;BME280;10614;53.198;6.570;2023-04-15T04:19:47;101239.31;;;6.84;100.00
20909;BME280;10614;53.198;6.570;2023-04-15T04:21:48;101238.41;;;6.83;100.00
20909;BME280;10614;53.198;6.570;2023-04-15T04:23:50;101240.19;;;6.83;100.00
20909;BME280;10614;53.198;6.570;2023-04-15T04:25:53;101240.19;;;6.81;100.00
20909;BME280;10614;53.198;6.570;2023-04-15T04:27:54;101242.84;;;6.80;100.00
20909;BME280;10614;53.198;6.570;2023-04-15T04:29:55;101240.25;;;6.78;100.00
20909;BME280;10614;53.198;6.570;2023-04-15T04:31:57;101244.66;;;6.76;100.00
20909;BME280;10614;53.198;6.570;2023-04-15T04:33:59;101247.34;;;6.73;100.00
20909;BME280;10614;53.198;6.570;2023-04-15T04:36:00;101249.97;;;6.71;100.00
20909;BME280;10614;53.198;6.570;2023-04-15T04:38:02;101251.72;;;6.71;100.00
20909;BME280;10614;53.198;6.570;2023-04-15T04:40:04;101252.63;;;6.68;100.00
20909;BME280;10614;53.198;6.570;2023-04-15T04:42:08;101247.41;;;6.68;100.00
20909;BME280;10614;53.198;6.570;2023-04-15T04:44:10;101254.44;;;6.65;100.00
20909;BME280;10614;53.198;6.570;2023-04-15T04:46:11;101253.56;;;6.64;100.00
20909;BME280;10614;53.198;6.570;2023-04-15T04:48:13;101246.63;;;6.63;100.00
20909;BME280;10614;53.198;6.570;2023-04-15T04:50:16;101254.47;;;6.63;100.00
20909;BME280;10614;53.198;6.570;2023-04-15T04:52:17;101256.25;;;6.61;100.00
20909;BME280;10614;53.198;6.570;2023-04-15T04:54:19;101260.63;;;6.61;100.00
20909;BME280;10614;53.198;6.570;2023-04-15T04:56:20;101258.03;;;6.59;100.00
20909;BME280;10614;53.198;6.570;2023-04-15T04:58:24;101261.56;;;6.57;100.00
20909;BME280;10614;53.198;6.570;2023-04-15T05:00:26;101255.56;;;6.48;100.00
20909;BME280;10614;53.198;6.570;2023-04-15T05:02:28;101254.00;;;6.40;100.00
20909;BME280;10614;53.198;6.570;2023-04-15T05:04:30;101253.22;;;6.34;100.00
20909;BME280;10614;53.198;6.570;2023-04-15T05:06:31;101260.16;;;6.34;100.00
20909;BME280;10614;53.198;6.570;2023-04-15T05:08:32;101261.91;;;6.35;100.00
20909;BME280;10614;53.198;6.570;2023-04-15T05:10:34;101260.16;;;6.36;100.00
20909;BME280;10614;53.198;6.570;2023-04-15T05:12:36;101259.25;;;6.38;100.00
20909;BME280;10614;53.198;6.570;2023-04-15T05:14:39;101267.06;;;6.40;100.00
20909;BME280;10614;53.198;6.570;2023-04-15T05:16:40;101265.31;;;6.39;100.00
20909;BME280;10614;53.198;6.570;2023-04-15T05:18:42;101267.06;;;6.40;100.00
20909;BME280;10614;53.198;6.570;2023-04-15T05:20:43;101268.78;;;6.41;100.00
20909;BME280;10614;53.198;6.570;2023-04-15T05:22:45;101275.78;;;6.40;100.00
20909;BME280;10614;53.198;6.570;2023-04-15T05:24:47;101276.63;;;6.41;100.00
20909;BME280;10614;53.198;6.570;2023-04-15T05:26:48;101281.00;;;6.40;100.00
20909;BME280;10614;53.198;6.570;2023-04-15T05:28:50;101286.28;;;6.37;100.00
20909;BME280;10614;53.198;6.570;2023-04-15T05:30:53;101275.00;;;6.33;100.00
20909;BME280;10614;53.198;6.570;2023-04-15T05:32:55;101282.91;;;6.30;100.00
20909;BME280;10614;53.198;6.570;2023-04-15T05:34:56;101279.44;;;6.28;100.00
20909;BME280;10614;53.198;6.570;2023-04-15T05:36:58;101292.50;;;6.28;100.00
20909;BME280;10614;53.198;6.570;2023-04-15T05:38:59;101288.19;;;6.26;100.00
20909;BME280;10614;53.198;6.570;2023-04-15T05:41:01;101296.06;;;6.24;100.00
20909;BME280;10614;53.198;6.570;2023-04-15T05:43:02;101303.88;;;6.26;100.00
20909;BME280;10614;53.198;6.570;2023-04-15T05:45:04;101299.53;;;6.25;100.00
20909;BME280;10614;53.198;6.570;2023-04-15T05:47:09;101299.53;;;6.25;100.00
20909;BME280;10614;53.198;6.570;2023-04-15T05:49:11;101305.59;;;6.27;100.00
20909;BME280;10614;53.198;6.570;2023-04-15T05:51:12;101303.81;;;6.29;100.00
20909;BME280;10614;53.198;6.570;2023-04-15T05:53:13;101309.91;;;6.29;100.00
20909;BME280;10614;53.198;6.570;2023-04-15T05:55:15;101310.75;;;6.31;100.00
20909;BME280;10614;53.198;6.570;2023-04-15T05:57:17;101310.75;;;6.34;100.00
20909;BME280;10614;53.198;6.570;2023-04-15T05:59:18;101306.31;;;6.38;100.00
20909;BME280;10614;53.198;6.570;2023-04-15T06:01:19;101316.72;;;6.41;100.00
20909;BME280;10614;53.198;6.570;2023-04-15T06:03:22;101317.53;;;6.45;100.00
20909;BME280;10614;53.198;6.570;2023-04-15T06:05:24;101322.72;;;6.48;100.00
20909;BME280;10614;53.198;6.570;2023-04-15T06:07:26;101327.03;;;6.50;100.00
20909;BME280;10614;53.198;6.570;2023-04-15T06:09:28;101327.88;;;6.54;100.00
20909;BME280;10614;53.198;6.570;2023-04-15T06:11:30;101334.81;;;6.57;100.00
20909;BME280;10614;53.198;6.570;2023-04-15T06:13:31;101337.41;;;6.58;100.00
20909;BME280;10614;53.198;6.570;2023-04-15T06:15:33;101342.56;;;6.61;100.00
20909;BME280;10614;53.198;6.570;2023-04-15T06:17:34;101342.56;;;6.63;100.00
20909;BME280;10614;53.198;6.570;2023-04-15T06:19:37;101340.75;;;6.65;100.00
20909;BME280;10614;53.198;6.570;2023-04-15T06:21:39;101352.06;;;6.68;100.00
20909;BME280;10614;53.198;6.570;2023-04-15T06:23:41;101353.75;;;6.72;100.00
20909;BME280;10614;53.198;6.570;2023-04-15T06:25:42;101347.59;;;6.73;100.00
20909;BME280;10614;53.198;6.570;2023-04-15T06:27:44;101348.44;;;6.75;100.00
20909;BME280;10614;53.198;6.570;2023-04-15T06:29:45;101353.63;;;6.79;100.00
20909;BME280;10614;53.198;6.570;2023-04-15T06:31:47;101361.47;;;6.79;100.00
20909;BME280;10614;53.198;6.570;2023-04-15T06:33:48;101353.56;;;6.83;100.00
20909;BME280;10614;53.198;6.570;2023-04-15T06:35:51;101358.75;;;6.85;100.00
20909;BME280;10614;53.198;6.570;2023-04-15T06:37:53;101360.47;;;6.86;100.00
20909;BME280;10614;53.198;6.570;2023-04-15T06:39:54;101362.16;;;6.90;100.00
20909;BME280;10614;53.198;6.570;2023-04-15T06:41:56;101363.00;;;6.92;100.00
20909;BME280;10614;53.198;6.570;2023-04-15T06:43:58;101373.47;;;6.93;100.00
20909;BME280;10614;53.198;6.570;2023-04-15T06:45:59;101376.88;;;6.97;100.00
20909;BME280;10614;53.198;6.570;2023-04-15T06:48:01;101372.47;;;6.99;100.00
20909;BME280;10614;53.198;6.570;2023-04-15T06:50:03;101377.66;;;7.04;100.00
20909;BME280;10614;53.198;6.570;2023-04-15T06:52:06;101380.19;;;7.07;100.00
20909;BME280;10614;53.198;6.570;2023-04-15T06:54:07;101381.91;;;7.09;100.00
20909;BME280;10614;53.198;6.570;2023-04-15T06:56:09;101380.97;;;7.13;100.00
20909;BME280;10614;53.198;6.570;2023-04-15T06:58:11;101389.59;;;7.18;100.00
20909;BME280;10614;53.198;6.570;2023-04-15T07:00:12;101388.66;;;7.24;100.00
20909;BME280;10614;53.198;6.570;2023-04-15T07:02:14;101389.50;;;7.25;100.00
20909;BME280;10614;53.198;6.570;2023-04-15T07:04:17;101385.09;;;7.28;100.00
20909;BME280;10614;53.198;6.570;2023-04-15T07:06:19;101380.66;;;7.32;100.00
20909;BME280;10614;53.198;6.570;2023-04-15T07:08:22;101389.38;;;7.32;100.00
20909;BME280;10614;53.198;6.570;2023-04-15T07:10:24;101382.34;;;7.34;100.00
20909;BME280;10614;53.198;6.570;2023-04-15T07:12:26;101382.31;;;7.37;100.00
20909;BME280;10614;53.198;6.570;2023-04-15T07:14:27;101386.63;;;7.40;100.00
20909;BME280;10614;53.198;6.570;2023-04-15T07:16:29;101389.25;;;7.40;100.00
20909;BME280;10614;53.198;6.570;2023-04-15T07:18:31;101387.41;;;7.44;100.00
20909;BME280;10614;53.198;6.570;2023-04-15T07:20:32;101385.63;;;7.46;100.00
20909;BME280;10614;53.198;6.570;2023-04-15T07:22:34;101404.72;;;7.52;100.00
20909;BME280;10614;53.198;6.570;2023-04-15T07:24:36;101391.63;;;7.54;100.00
20909;BME280;10614;53.198;6.570;2023-04-15T07:26:38;101398.50;;;7.58;100.00
20909;BME280;10614;53.198;6.570;2023-04-15T07:28:40;101408.03;;;7.62;100.00
20909;BME280;10614;53.198;6.570;2023-04-15T07:30:45;101401.84;;;7.66;100.00
20909;BME280;10614;53.198;6.570;2023-04-15T07:32:46;101413.19;;;7.67;100.00
20909;BME280;10614;53.198;6.570;2023-04-15T07:34:48;101406.19;;;7.69;100.00
20909;BME280;10614;53.198;6.570;2023-04-15T07:36:49;101410.56;;;7.68;100.00
20909;BME280;10614;53.198;6.570;2023-04-15T07:38:51;101405.28;;;7.70;100.00
20909;BME280;10614;53.198;6.570;2023-04-15T07:40:54;101413.03;;;7.74;100.00
20909;BME280;10614;53.198;6.570;2023-04-15T07:42:55;101416.50;;;7.76;100.00
20909;BME280;10614;53.198;6.570;2023-04-15T07:44:57;101416.47;;;7.78;100.00
20909;BME280;10614;53.198;6.570;2023-04-15T07:46:59;101417.34;;;7.77;100.00
20909;BME280;10614;53.198;6.570;2023-04-15T07:49:01;101422.66;;;7.75;100.00
20909;BME280;10614;53.198;6.570;2023-04-15T07:51:02;101424.34;;;7.78;100.00
20909;BME280;10614;53.198;6.570;2023-04-15T07:53:04;101429.50;;;7.82;100.00
20909;BME280;10614;53.198;6.570;2023-04-15T07:55:06;101419.81;;;7.86;100.00
20909;BME280;10614;53.198;6.570;2023-04-15T07:57:09;101410.16;;;7.88;100.00
20909;BME280;10614;53.198;6.570;2023-04-15T07:59:11;101424.09;;;7.90;100.00
20909;BME280;10614;53.198;6.570;2023-04-15T08:01:14;101423.16;;;7.94;100.00
20909;BME280;10614;53.198;6.570;2023-04-15T08:03:16;101429.16;;;8.01;100.00
20909;BME280;10614;53.198;6.570;2023-04-15T08:05:17;101422.97;;;8.03;100.00
20909;BME280;10614;53.198;6.570;2023-04-15T08:07:19;101405.47;;;8.06;100.00
20909;BME280;10614;53.198;6.570;2023-04-15T08:09:20;101426.38;;;8.07;100.00
20909;BME280;10614;53.198;6.570;2023-04-15T08:11:22;101431.59;;;8.10;100.00
20909;BME280;10614;53.198;6.570;2023-04-15T08:13:25;101436.75;;;8.13;100.00
20909;BME280;10614;53.198;6.570;2023-04-15T08:15:27;101433.22;;;8.14;100.00
20909;BME280;10614;53.198;6.570;2023-04-15T08:17:28;101444.53;;;8.18;100.00
20909;BME280;10614;53.198;6.570;2023-04-15T08:19:30;101431.41;;;8.18;100.00
20909;BME280;10614;53.198;6.570;2023-04-15T08:21:31;101442.78;;;8.17;100.00
20909;BME280;10614;53.198;6.570;2023-04-15T08:23:33;101440.16;;;8.17;100.00
20909;BME280;10614;53.198;6.570;2023-04-15T08:25:35;101442.75;;;8.18;100.00
20909;BME280;10614;53.198;6.570;2023-04-15T08:27:36;101449.88;;;8.13;100.00
20909;BME280;10614;53.198;6.570;2023-04-15T08:29:39;101424.63;;;8.08;100.00
20909;BME280;10614;53.198;6.570;2023-04-15T08:31:41;101444.72;;;8.07;100.00
20909;BME280;10614;53.198;6.570;2023-04-15T08:33:42;101443.81;;;8.10;100.00
20909;BME280;10614;53.198;6.570;2023-04-15T08:35:45;101445.59;;;8.08;100.00
20909;BME280;10614;53.198;6.570;2023-04-15T08:37:46;101448.16;;;8.11;100.00
20909;BME280;10614;53.198;6.570;2023-04-15T08:39:48;101455.19;;;8.10;100.00
20909;BME280;10614;53.198;6.570;2023-04-15T08:41:51;101437.63;;;8.12;100.00
20909;BME280;10614;53.198;6.570;2023-04-15T08:43:53;101455.19;;;8.09;100.00
20909;BME280;10614;53.198;6.570;2023-04-15T08:45:58;101446.44;;;8.10;100.00
20909;BME280;10614;53.198;6.570;2023-04-15T08:48:07;101448.19;;;8.09;100.00
20909;BME280;10614;53.198;6.570;2023-04-15T08:50:10;101447.34;;;8.09;100.00
20909;BME280;10614;53.198;6.570;2023-04-15T08:52:11;101446.47;;;8.08;100.00
20909;BME280;10614;53.198;6.570;2023-04-15T08:54:13;101450.81;;;8.09;100.00
20909;BME280;10614;53.198;6.570;2023-04-15T08:56:15;101450.81;;;8.09;100.00
20909;BME280;10614;53.198;6.570;2023-04-15T08:58:16;101441.16;;;8.11;100.00
20909;BME280;10614;53.198;6.570;2023-04-15T09:00:19;101445.56;;;8.09;100.00
20909;BME280;10614;53.198;6.570;2023-04-15T09:02:23;101449.94;;;8.10;100.00
20909;BME280;10614;53.198;6.570;2023-04-15T09:04:25;101463.00;;;8.12;100.00
20909;BME280;10614;53.198;6.570;2023-04-15T09:06:28;101463.06;;;8.10;100.00
20909;BME280;10614;53.198;6.570;2023-04-15T09:08:29;101464.75;;;8.13;100.00
20909;BME280;10614;53.198;6.570;2023-04-15T09:10:31;101461.22;;;8.14;100.00
20909;BME280;10614;53.198;6.570;2023-04-15T09:12:33;101471.63;;;8.17;100.00
20909;BME280;10614;53.198;6.570;2023-04-15T09:14:35;101469.84;;;8.19;100.00
20909;BME280;10614;53.198;6.570;2023-04-15T09:16:56;101474.16;;;8.23;100.00
20909;BME280;10614;53.198;6.570;2023-04-15T09:18:59;101471.44;;;8.26;100.00
20909;BME280;10614;53.198;6.570;2023-04-15T09:21:03;101480.97;;;8.32;100.00
20909;BME280;10614;53.198;6.570;2023-04-15T09:23:10;101475.66;;;8.35;100.00
20909;BME280;10614;53.198;6.570;2023-04-15T09:25:24;101484.38;;;8.35;100.00
20909;BME280;10614;53.198;6.570;2023-04-15T09:27:26;101479.19;;;8.34;100.00
20909;BME280;10614;53.198;6.570;2023-04-15T09:29:27;101484.38;;;8.35;100.00
20909;BME280;10614;53.198;6.570;2023-04-15T09:31:29;101489.56;;;8.40;100.00
20909;BME280;10614;53.198;6.570;2023-04-15T09:33:31;101486.00;;;8.42;100.00
20909;BME280;10614;53.198;6.570;2023-04-15T09:35:33;101488.59;;;8.45;100.00
20909;BME280;10614;53.198;6.570;2023-04-15T09:37:35;101485.88;;;8.50;100.00
20909;BME280;10614;53.198;6.570;2023-04-15T09:44:11;101496.94;;;8.64;100.00
20909;BME280;10614;53.198;6.570;2023-04-15T09:48:38;101501.22;;;8.69;100.00
20909;BME280;10614;53.198;6.570;2023-04-15T09:50:41;101493.31;;;8.70;100.00
20909;BME280;10614;53.198;6.570;2023-04-15T09:52:43;101504.63;;;8.72;100.00
20909;BME280;10614;53.198;6.570;2023-04-15T09:54:44;101505.47;;;8.74;100.00
20909;BME280;10614;53.198;6.570;2023-04-15T09:56:46;101509.78;;;8.77;100.00
20909;BME280;10614;53.198;6.570;2023-04-15T09:58:54;101514.13;;;8.78;100.00
20909;BME280;10614;53.198;6.570;2023-04-15T10:00:57;101498.38;;;8.78;100.00
20909;BME280;10614;53.198;6.570;2023-04-15T10:02:58;101508.94;;;8.76;100.00
20909;BME280;10614;53.198;6.570;2023-04-15T10:05:01;101520.22;;;8.80;100.00
20909;BME280;10614;53.198;6.570;2023-04-15T10:07:04;101514.13;;;8.78;100.00
20909;BME280;10614;53.198;6.570;2023-04-15T10:09:06;101521.03;;;8.82;100.00
20909;BME280;10614;53.198;6.570;2023-04-15T10:11:08;101516.69;;;8.81;100.00
20909;BME280;10614;53.198;6.570;2023-04-15T10:13:10;101507.91;;;8.83;100.00
20909;BME280;10614;53.198;6.570;2023-04-15T10:15:14;101520.94;;;8.86;100.00
20909;BME280;10614;53.198;6.570;2023-04-15T10:17:16;101517.38;;;8.89;100.00
20909;BME280;10614;53.198;6.570;2023-04-15T10:19:18;101522.53;;;8.94;100.00
20909;BME280;10614;53.198;6.570;2023-04-15T10:21:22;101531.31;;;8.93;100.00
20909;BME280;10614;53.198;6.570;2023-04-15T10:23:25;101517.38;;;8.91;100.00
20909;BME280;10614;53.198;6.570;2023-04-15T10:25:27;101520.84;;;8.91;100.00
20909;BME280;10614;53.198;6.570;2023-04-15T10:27:28;101526.09;;;8.91;100.00
20909;BME280;10614;53.198;6.570;2023-04-15T10:29:30;101519.97;;;8.92;100.00
20909;BME280;10614;53.198;6.570;2023-04-15T10:31:32;101527.00;;;8.90;100.00
20909;BME280;10614;53.198;6.570;2023-04-15T10:33:34;101526.13;;;8.90;100.00
20909;BME280;10614;53.198;6.570;2023-04-15T10:35:37;101522.69;;;8.87;100.00
20909;BME280;10614;53.198;6.570;2023-04-15T10:37:39;101527.88;;;8.89;100.00
20909;BME280;10614;53.198;6.570;2023-04-15T10:39:42;101534.84;;;8.92;100.00
20909;BME280;10614;53.198;6.570;2023-04-15T10:41:44;101534.91;;;8.88;100.00
20909;BME280;10614;53.198;6.570;2023-04-15T10:43:50;101527.94;;;8.87;100.00
20909;BME280;10614;53.198;6.570;2023-04-15T10:45:52;101533.19;;;8.87;100.00
20909;BME280;10614;53.198;6.570;2023-04-15T10:47:54;101539.25;;;8.90;100.00